createdAt,value
2019-01-23T00:00:43.732Z,-0.70
2019-01-23T00:03:13.207Z,-0.70
2019-01-23T00:05:42.775Z,-0.70
2019-01-23T00:08:12.291Z,-0.90
2019-01-23T00:10:41.869Z,-0.90
2019-01-23T00:13:11.370Z,-1.00
2019-01-23T00:15:40.990Z,-1.00
2019-01-23T00:18:10.477Z,-1.00
2019-01-23T00:20:39.961Z,-1.00
2019-01-23T00:23:09.401Z,-0.90
2019-01-23T00:25:38.890Z,-1.00
2019-01-23T00:28:08.366Z,-1.00
2019-01-23T00:30:37.899Z,-1.10
2019-01-23T00:33:07.381Z,-1.10
2019-01-23T00:35:36.863Z,-1.10
2019-01-23T00:38:06.482Z,-1.10
2019-01-23T00:40:35.967Z,-1.10
2019-01-23T00:43:05.446Z,-1.10
2019-01-23T00:45:34.962Z,-1.10
2019-01-23T00:48:04.453Z,-1.10
2019-01-23T00:50:33.939Z,-1.10
2019-01-23T00:53:03.454Z,-1.10
2019-01-23T00:55:33.157Z,-1.20
2019-01-23T00:58:15.018Z,-1.10
2019-01-23T01:00:44.493Z,-1.10
2019-01-23T01:03:13.968Z,-1.10
2019-01-23T01:05:43.484Z,-1.10
2019-01-23T01:08:12.963Z,-1.10
2019-01-23T01:10:42.468Z,-1.20
2019-01-23T01:13:11.977Z,-1.20
2019-01-23T01:15:41.463Z,-1.20
2019-01-23T01:18:10.980Z,-1.20
2019-01-23T01:20:40.473Z,-1.10
2019-01-23T01:23:09.941Z,-1.20
2019-01-23T01:25:39.477Z,-1.20
2019-01-23T01:28:08.998Z,-1.10
2019-01-23T01:30:38.519Z,-1.10
2019-01-23T01:33:08.048Z,-1.10
2019-01-23T01:35:37.634Z,-1.20
2019-01-23T01:38:07.210Z,-1.30
2019-01-23T01:40:36.729Z,-1.40
2019-01-23T01:43:06.224Z,-1.50
2019-01-23T01:45:35.714Z,-1.60
2019-01-23T01:48:05.355Z,-1.70
2019-01-23T01:50:34.945Z,-1.70
2019-01-23T01:53:04.450Z,-1.70
2019-01-23T01:55:33.988Z,-1.80
2019-01-23T01:58:03.460Z,-1.70
2019-01-23T02:00:32.935Z,-1.70
2019-01-23T02:03:02.437Z,-1.60
2019-01-23T02:05:31.927Z,-1.50
2019-01-23T02:08:01.421Z,-1.60
2019-01-23T02:10:30.941Z,-1.50
2019-01-23T02:13:00.424Z,-1.40
2019-01-23T02:15:29.917Z,-1.50
2019-01-23T02:17:59.717Z,-1.50
2019-01-23T02:20:29.215Z,-1.50
2019-01-23T02:22:58.688Z,-1.60
2019-01-23T02:25:28.204Z,-1.70
2019-01-23T02:27:57.680Z,-1.80
2019-01-23T02:30:27.174Z,-1.70
2019-01-23T02:32:56.692Z,-1.70
2019-01-23T02:35:26.176Z,-1.70
2019-01-23T02:37:55.674Z,-1.80
2019-01-23T02:40:25.191Z,-1.70
2019-01-23T02:42:54.668Z,-1.80
2019-01-23T02:45:24.358Z,-1.90
2019-01-23T02:47:53.879Z,-1.90
2019-01-23T02:50:23.355Z,-1.90
2019-01-23T02:52:52.934Z,-2.00
2019-01-23T02:55:22.437Z,-1.90
2019-01-23T02:57:52.241Z,-2.00
2019-01-23T03:00:21.793Z,-2.00
2019-01-23T03:02:51.308Z,-1.90
2019-01-23T03:05:20.881Z,-1.90
2019-01-23T03:07:50.467Z,-1.90
2019-01-23T03:10:27.215Z,-1.90
2019-01-23T03:12:56.719Z,-1.90
2019-01-23T03:15:26.199Z,-1.80
2019-01-23T03:17:55.777Z,-1.90
2019-01-23T03:20:25.272Z,-1.80
2019-01-23T03:23:05.131Z,-1.80
2019-01-23T03:25:35.931Z,-1.80
2019-01-23T03:28:05.437Z,-1.80
2019-01-23T03:30:34.963Z,-1.80
2019-01-23T03:33:04.519Z,-1.90
2019-01-23T03:35:33.985Z,-1.90
2019-01-23T03:38:03.483Z,-1.90
2019-01-23T03:40:32.969Z,-1.80
2019-01-23T03:43:02.459Z,-1.70
2019-01-23T03:45:31.962Z,-1.70
2019-01-23T03:48:01.430Z,-1.70
2019-01-23T03:50:32.752Z,-1.60
2019-01-23T03:53:02.249Z,-1.60
2019-01-23T03:55:31.738Z,-1.60
2019-01-23T03:58:01.231Z,-1.70
2019-01-23T04:00:30.745Z,-1.60
2019-01-23T04:03:00.241Z,-1.60
2019-01-23T04:05:31.111Z,-1.70
2019-01-23T04:08:00.837Z,-1.60
2019-01-23T04:10:30.323Z,-1.70
2019-01-23T04:12:59.812Z,-1.70
2019-01-23T04:15:29.330Z,-1.70
2019-01-23T04:17:58.816Z,-1.60
2019-01-23T04:20:28.332Z,-1.70
2019-01-23T04:22:57.825Z,-1.70
2019-01-23T04:25:27.335Z,-1.70
2019-01-23T04:27:56.863Z,-1.70
2019-01-23T04:30:26.404Z,-1.70
2019-01-23T04:32:55.945Z,-1.80
2019-01-23T04:35:25.425Z,-1.70
2019-01-23T04:37:54.903Z,-1.80
2019-01-23T04:40:24.428Z,-1.70
2019-01-23T04:42:53.912Z,-1.70
2019-01-23T04:45:25.246Z,-1.80
2019-01-23T04:47:54.756Z,-1.80
2019-01-23T04:50:24.229Z,-1.80
2019-01-23T04:53:07.332Z,-1.90
2019-01-23T04:55:37.917Z,-1.90
2019-01-23T04:58:07.413Z,-1.90
2019-01-23T05:00:36.918Z,-1.90
2019-01-23T05:03:06.400Z,-1.90
2019-01-23T05:05:35.870Z,-1.90
2019-01-23T05:08:05.367Z,-1.90
2019-01-23T05:10:34.859Z,-1.90
2019-01-23T05:13:04.354Z,-1.80
2019-01-23T05:15:33.878Z,-1.90
2019-01-23T05:18:03.412Z,-1.90
2019-01-23T05:20:32.898Z,-1.90
2019-01-23T05:23:02.443Z,-1.90
2019-01-23T05:25:31.918Z,-1.90
2019-01-23T05:28:01.397Z,-1.90
2019-01-23T05:30:50.252Z,-1.90
2019-01-23T05:33:19.737Z,-1.90
2019-01-23T05:35:49.224Z,-1.90
2019-01-23T05:38:18.734Z,-1.90
2019-01-23T05:40:48.238Z,-1.90
2019-01-23T05:43:17.713Z,-1.90
2019-01-23T05:45:47.243Z,-1.90
2019-01-23T05:48:16.773Z,-1.90
2019-01-23T05:50:46.313Z,-1.90
2019-01-23T05:53:15.813Z,-1.90
2019-01-23T05:55:45.311Z,-1.90
2019-01-23T05:58:15.011Z,-1.90
2019-01-23T06:00:44.612Z,-1.90
2019-01-23T06:03:14.198Z,-1.90
2019-01-23T06:05:43.678Z,-1.90
2019-01-23T06:08:13.202Z,-1.90
2019-01-23T06:10:42.673Z,-1.90
2019-01-23T06:13:12.160Z,-1.90
2019-01-23T06:15:41.665Z,-1.90
2019-01-23T06:18:11.152Z,-1.80
2019-01-23T06:20:40.630Z,-1.70
2019-01-23T06:23:10.275Z,-1.70
2019-01-23T06:25:39.990Z,-1.70
2019-01-23T06:28:09.419Z,-1.80
2019-01-23T06:30:38.900Z,-1.80
2019-01-23T06:33:08.382Z,-1.80
2019-01-23T06:35:37.898Z,-1.80
2019-01-23T06:38:07.374Z,-1.80
2019-01-23T06:40:36.865Z,-1.80
2019-01-23T06:43:06.361Z,-1.90
2019-01-23T06:45:35.837Z,-1.90
2019-01-23T06:48:05.324Z,-2.00
2019-01-23T06:50:34.934Z,-2.00
2019-01-23T06:53:04.427Z,-2.00
2019-01-23T06:55:34.018Z,-2.10
2019-01-23T06:58:03.533Z,-2.10
2019-01-23T07:00:33.026Z,-2.10
2019-01-23T07:03:02.504Z,-2.10
2019-01-23T07:05:32.137Z,-2.10
2019-01-23T07:08:01.600Z,-2.20
2019-01-23T07:10:31.085Z,-2.20
2019-01-23T07:13:00.606Z,-2.10
2019-01-23T07:15:30.110Z,-2.10
2019-01-23T07:17:59.594Z,-2.10
2019-01-23T07:20:29.093Z,-2.00
2019-01-23T07:22:58.585Z,-2.00
2019-01-23T07:25:28.059Z,-1.90
2019-01-23T07:27:57.567Z,-2.00
2019-01-23T07:30:34.161Z,-2.00
2019-01-23T07:33:03.670Z,-2.00
2019-01-23T07:35:33.171Z,-2.00
2019-01-23T07:38:02.633Z,-1.90
2019-01-23T07:40:32.145Z,-2.00
2019-01-23T07:43:01.725Z,-2.00
2019-01-23T07:45:33.069Z,-2.00
2019-01-23T07:48:02.574Z,-1.90
2019-01-23T07:50:32.069Z,-1.90
2019-01-23T07:53:01.551Z,-1.80
2019-01-23T07:55:31.078Z,-1.80
2019-01-23T07:58:00.578Z,-1.90
2019-01-23T08:00:31.565Z,-1.80
2019-01-23T08:03:01.344Z,-1.70
2019-01-23T08:05:30.820Z,-1.60
2019-01-23T08:08:00.578Z,-1.50
2019-01-23T08:10:30.097Z,-1.50
2019-01-23T08:12:59.577Z,-1.30
2019-01-23T08:15:34.306Z,-1.30
2019-01-23T08:18:03.825Z,-1.30
2019-01-23T08:20:33.235Z,-1.20
2019-01-23T08:23:02.752Z,-1.10
2019-01-23T08:25:32.266Z,-1.10
2019-01-23T08:28:01.760Z,-1.10
2019-01-23T08:30:38.283Z,-1.00
2019-01-23T08:33:02.486Z,-1.10
2019-01-23T08:35:31.989Z,-1.00
2019-01-23T08:38:01.452Z,-1.10
2019-01-23T08:40:30.970Z,-1.00
2019-01-23T08:43:00.545Z,-1.00
2019-01-23T08:45:30.018Z,-1.10
2019-01-23T08:47:59.536Z,-1.10
2019-01-23T08:50:36.253Z,-1.10
2019-01-23T08:53:05.837Z,-1.10
2019-01-23T08:55:35.370Z,-1.10
2019-01-23T08:58:05.568Z,-1.10
2019-01-23T09:00:35.069Z,-1.10
2019-01-23T09:03:05.071Z,-1.10
2019-01-23T09:05:34.549Z,-1.10
2019-01-23T09:08:04.377Z,-1.10
2019-01-23T09:10:33.967Z,-1.10
2019-01-23T09:13:03.465Z,-1.00
2019-01-23T09:15:33.084Z,-0.90
2019-01-23T09:18:02.550Z,-0.80
2019-01-23T09:20:32.030Z,-0.70
2019-01-23T09:23:01.536Z,-0.50
2019-01-23T09:25:31.016Z,-0.30
2019-01-23T09:28:00.494Z,-0.20
2019-01-23T09:30:40.409Z,-0.10
2019-01-23T09:33:29.585Z,0.00
2019-01-23T09:36:24.809Z,0.00
2019-01-23T09:39:32.268Z,-0.10
2019-01-23T09:42:21.314Z,-0.10
2019-01-23T09:45:10.410Z,-0.10
2019-01-23T09:47:56.316Z,-0.20
2019-01-23T09:50:33.194Z,-0.20
2019-01-23T09:53:13.247Z,-0.20
2019-01-23T09:55:42.722Z,-0.20
2019-01-23T09:58:12.207Z,-0.20
2019-01-23T10:00:41.709Z,-0.10
2019-01-23T10:03:11.192Z,-0.10
2019-01-23T10:05:40.707Z,-0.20
2019-01-23T10:08:10.214Z,-0.20
2019-01-23T10:10:39.704Z,-0.20
2019-01-23T10:13:09.174Z,-0.20
2019-01-23T10:15:43.577Z,-0.30
2019-01-23T10:18:13.075Z,-0.40
2019-01-23T10:20:42.607Z,-0.40
2019-01-23T10:23:12.130Z,-0.50
2019-01-23T10:25:41.687Z,-0.50
2019-01-23T10:28:11.348Z,-0.50
2019-01-23T10:30:40.874Z,-0.50
2019-01-23T10:33:10.456Z,-0.40
2019-01-23T10:35:39.972Z,-0.40
2019-01-23T10:38:09.472Z,-0.40
2019-01-23T10:40:38.980Z,-0.30
2019-01-23T10:43:08.466Z,-0.30
2019-01-23T10:45:37.898Z,-0.40
2019-01-23T10:48:07.370Z,-0.40
2019-01-23T10:50:36.840Z,-0.40
2019-01-23T10:53:06.565Z,-0.40
2019-01-23T10:55:36.039Z,-0.40
2019-01-23T10:58:05.525Z,-0.40
2019-01-23T11:00:35.024Z,-0.30
2019-01-23T11:03:09.941Z,-0.10
2019-01-23T11:05:35.707Z,-0.20
2019-01-23T11:08:05.215Z,-0.20
2019-01-23T11:10:34.697Z,-0.20
2019-01-23T11:13:04.167Z,-0.10
2019-01-23T11:15:33.793Z,-0.20
2019-01-23T11:18:03.257Z,-0.10
2019-01-23T11:20:32.740Z,-0.10
2019-01-23T11:23:02.279Z,-0.10
2019-01-23T11:25:31.750Z,-0.10
2019-01-23T11:28:01.231Z,0.00
2019-01-23T11:30:30.730Z,0.10
2019-01-23T11:33:00.232Z,0.10
2019-01-23T11:35:29.685Z,0.00
2019-01-23T11:37:59.299Z,0.00
2019-01-23T11:40:32.392Z,0.10
2019-01-23T11:43:01.861Z,0.10
2019-01-23T11:45:31.360Z,0.00
2019-01-23T11:48:00.850Z,0.10
2019-01-23T11:50:30.318Z,0.10
2019-01-23T11:52:59.991Z,0.20
2019-01-23T11:55:29.468Z,0.30
2019-01-23T11:57:58.939Z,0.40
2019-01-23T12:00:30.018Z,0.40
2019-01-23T12:02:59.511Z,0.30
2019-01-23T12:05:28.982Z,0.30
2019-01-23T12:07:58.565Z,0.30
2019-01-23T12:10:29.918Z,0.40
2019-01-23T12:12:59.401Z,0.40
2019-01-23T12:15:28.900Z,0.40
2019-01-23T12:17:58.391Z,0.50
2019-01-23T12:20:27.873Z,0.60
2019-01-23T12:22:57.360Z,0.80
2019-01-23T12:25:26.831Z,0.80
2019-01-23T12:27:56.296Z,1.00
2019-01-23T12:30:30.285Z,1.00
2019-01-23T12:32:59.762Z,1.00
2019-01-23T12:35:29.226Z,1.00
2019-01-23T12:37:58.735Z,1.20
2019-01-23T12:40:28.260Z,1.10
2019-01-23T12:42:57.766Z,1.10
2019-01-23T12:45:29.183Z,1.20
2019-01-23T12:47:58.657Z,1.20
2019-01-23T12:50:31.264Z,1.20
2019-01-23T12:53:00.731Z,1.30
2019-01-23T12:55:30.227Z,1.30
2019-01-23T12:57:59.739Z,1.30
2019-01-23T13:00:31.005Z,1.20
2019-01-23T13:03:00.682Z,1.10
2019-01-23T13:05:30.385Z,1.00
2019-01-23T13:07:59.874Z,1.00
2019-01-23T13:10:29.331Z,0.90
2019-01-23T13:12:58.829Z,1.10
2019-01-23T13:15:28.923Z,1.00
2019-01-23T13:17:58.407Z,1.10
2019-01-23T13:20:28.426Z,1.00
2019-01-23T13:22:57.904Z,1.00
2019-01-23T13:25:30.580Z,0.90
2019-01-23T13:28:02.093Z,0.90
2019-01-23T13:30:31.568Z,0.90
2019-01-23T13:33:01.154Z,0.90
2019-01-23T13:35:37.291Z,0.90
2019-01-23T13:38:11.074Z,1.00
2019-01-23T13:40:40.557Z,0.80
2019-01-23T13:43:10.072Z,0.80
2019-01-23T13:45:39.553Z,0.80
2019-01-23T13:48:09.035Z,0.90
2019-01-23T13:50:38.580Z,0.80
2019-01-23T13:53:08.074Z,0.80
2019-01-23T13:55:37.546Z,0.70
2019-01-23T13:58:07.106Z,0.70
2019-01-23T14:00:40.390Z,0.50
2019-01-23T14:03:09.942Z,0.40
2019-01-23T14:05:39.440Z,0.40
2019-01-23T14:08:09.956Z,0.30
2019-01-23T14:10:39.837Z,0.20
2019-01-23T14:13:09.250Z,0.30
2019-01-23T14:15:40.327Z,0.30
2019-01-23T14:18:09.821Z,0.30
2019-01-23T14:20:39.293Z,0.20
2019-01-23T14:23:08.755Z,0.20
2019-01-23T14:25:38.257Z,0.10
2019-01-23T14:28:07.758Z,0.00
2019-01-23T14:30:42.856Z,0.00
2019-01-23T14:33:12.378Z,0.00
2019-01-23T14:35:41.882Z,0.00
2019-01-23T14:38:11.507Z,-0.10
2019-01-23T14:40:40.999Z,-0.10
2019-01-23T14:43:10.476Z,-0.10
2019-01-23T14:45:39.990Z,-0.10
2019-01-23T14:48:09.471Z,-0.20
2019-01-23T14:50:38.946Z,-0.20
2019-01-23T14:53:08.451Z,-0.20
2019-01-23T14:55:37.937Z,-0.30
2019-01-23T14:58:07.408Z,-0.30
2019-01-23T15:00:36.933Z,-0.30
2019-01-23T15:03:06.526Z,-0.30
2019-01-23T15:05:36.004Z,-0.30
2019-01-23T15:08:05.533Z,-0.40
2019-01-23T15:10:35.109Z,-0.40
2019-01-23T15:13:04.896Z,-0.50
2019-01-23T15:15:34.412Z,-0.50
2019-01-23T15:18:03.917Z,-0.60
2019-01-23T15:20:40.157Z,-0.50
2019-01-23T15:23:09.637Z,-0.60
2019-01-23T15:25:39.116Z,-0.70
2019-01-23T15:28:08.623Z,-0.70
2019-01-23T15:30:38.179Z,-0.90
2019-01-23T15:33:07.682Z,-1.00
2019-01-23T15:35:37.169Z,-1.00
2019-01-23T15:38:06.648Z,-1.00
2019-01-23T15:40:36.249Z,-1.00
2019-01-23T15:43:05.734Z,-1.00
2019-01-23T15:45:40.822Z,-1.00
2019-01-23T15:48:31.468Z,-1.00
2019-01-23T15:51:00.956Z,-1.00
2019-01-23T15:53:33.123Z,-1.00
2019-01-23T15:56:02.632Z,-1.00
2019-01-23T15:58:32.233Z,-0.90
2019-01-23T16:01:01.692Z,-0.90
2019-01-23T16:03:31.214Z,-1.00
2019-01-23T16:06:00.693Z,-1.00
2019-01-23T16:08:30.551Z,-1.00
2019-01-23T16:11:00.058Z,-1.00
2019-01-23T16:13:29.566Z,-1.10
2019-01-23T16:15:59.046Z,-1.10
2019-01-23T16:18:28.551Z,-1.00
2019-01-23T16:20:58.078Z,-1.10
2019-01-23T16:23:27.707Z,-1.10
2019-01-23T16:25:57.303Z,-1.20
2019-01-23T16:28:26.825Z,-1.10
2019-01-23T16:30:56.365Z,-1.20
2019-01-23T16:33:26.212Z,-1.20
2019-01-23T16:35:55.689Z,-1.20
2019-01-23T16:38:25.177Z,-1.20
2019-01-23T16:40:54.713Z,-1.20
2019-01-23T16:43:24.189Z,-1.20
2019-01-23T16:45:53.688Z,-1.10
2019-01-23T16:48:23.241Z,-1.20
2019-01-23T16:50:52.723Z,-1.10
2019-01-23T16:53:23.935Z,-1.20
2019-01-23T16:55:53.708Z,-1.20
2019-01-23T16:58:23.190Z,-1.20
2019-01-23T17:00:52.717Z,-1.30
2019-01-23T17:03:22.293Z,-1.20
2019-01-23T17:05:51.926Z,-1.20
2019-01-23T17:08:21.413Z,-1.20
2019-01-23T17:10:50.915Z,-1.20
2019-01-23T17:13:20.515Z,-1.30
2019-01-23T17:15:50.017Z,-1.30
2019-01-23T17:18:19.551Z,-1.30
2019-01-23T17:20:52.918Z,-1.30
2019-01-23T17:23:22.446Z,-1.40
2019-01-23T17:25:51.924Z,-1.30
2019-01-23T17:28:21.462Z,-1.20
2019-01-23T17:30:51.005Z,-1.20
2019-01-23T17:33:20.646Z,-1.30
2019-01-23T17:35:50.181Z,-1.30
2019-01-23T17:38:22.796Z,-1.30
2019-01-23T17:40:52.365Z,-1.30
2019-01-23T17:43:22.085Z,-1.30
2019-01-23T17:45:51.590Z,-1.30
2019-01-23T17:48:21.069Z,-1.40
2019-01-23T17:50:50.562Z,-1.40
2019-01-23T17:53:20.174Z,-1.40
2019-01-23T17:55:49.666Z,-1.40
2019-01-23T17:58:19.183Z,-1.40
2019-01-23T18:00:50.257Z,-1.30
2019-01-23T18:03:20.104Z,-1.40
2019-01-23T18:05:51.250Z,-1.40
2019-01-23T18:08:21.020Z,-1.30
2019-01-23T18:10:50.502Z,-1.30
2019-01-23T18:13:20.136Z,-1.40
2019-01-23T18:15:49.623Z,-1.30
2019-01-23T18:18:19.115Z,-1.30
2019-01-23T18:20:48.616Z,-1.30
2019-01-23T18:23:18.104Z,-1.30
2019-01-23T18:25:47.608Z,-1.30
2019-01-23T18:28:17.128Z,-1.30
2019-01-23T18:31:03.066Z,-1.20
2019-01-23T18:33:37.253Z,-1.20
2019-01-23T18:36:38.538Z,-1.20
2019-01-23T18:39:15.625Z,-1.20
2019-01-23T18:41:55.654Z,-1.20
2019-01-23T18:44:41.523Z,-1.10
2019-01-23T18:47:52.038Z,-1.10
2019-01-23T18:50:53.222Z,-1.10
2019-01-23T18:53:22.707Z,-1.10
2019-01-23T18:55:52.328Z,-1.10
2019-01-23T18:58:21.858Z,-1.10
2019-01-23T19:00:51.349Z,-1.10
2019-01-23T19:03:20.842Z,-1.10
2019-01-23T19:05:50.631Z,-1.10
2019-01-23T19:08:20.136Z,-1.30
2019-01-23T19:10:49.638Z,-1.20
2019-01-23T19:13:19.150Z,-1.20
2019-01-23T19:15:48.643Z,-1.20
2019-01-23T19:18:18.151Z,-1.20
2019-01-23T19:20:47.657Z,-1.20
2019-01-23T19:23:17.158Z,-1.20
2019-01-23T19:25:46.678Z,-1.30
2019-01-23T19:28:16.186Z,-1.20
2019-01-23T19:30:45.680Z,-1.20
2019-01-23T19:33:15.184Z,-1.20
2019-01-23T19:35:44.697Z,-1.20
2019-01-23T19:38:14.191Z,-1.20
2019-01-23T19:40:43.830Z,-1.10
2019-01-23T19:43:13.343Z,-1.10
2019-01-23T19:45:42.820Z,-1.20
2019-01-23T19:48:12.378Z,-1.10
2019-01-23T19:50:42.029Z,-1.10
2019-01-23T19:53:11.534Z,-1.10
2019-01-23T19:55:41.661Z,-1.00
2019-01-23T19:58:11.603Z,-1.00
2019-01-23T20:00:41.161Z,-1.00
2019-01-23T20:03:10.640Z,-1.00
2019-01-23T20:05:40.568Z,-1.00
2019-01-23T20:08:10.676Z,-1.00
2019-01-23T20:10:40.205Z,-1.00
2019-01-23T20:13:09.732Z,-1.00
2019-01-23T20:15:39.529Z,-0.90
2019-01-23T20:18:09.273Z,-0.90
2019-01-23T20:20:38.806Z,-0.90
2019-01-23T20:23:08.382Z,-0.90
2019-01-23T20:25:37.972Z,-0.90
2019-01-23T20:28:07.522Z,-0.80
2019-01-23T20:30:39.462Z,-0.80
2019-01-23T20:33:08.948Z,-0.80
2019-01-23T20:35:38.553Z,-0.80
2019-01-23T20:38:08.049Z,-0.80
2019-01-23T20:40:37.670Z,-1.00
2019-01-23T20:43:07.281Z,-1.00
2019-01-23T20:45:36.754Z,-1.00
2019-01-23T20:48:07.165Z,-1.00
2019-01-23T20:50:36.671Z,-1.00
2019-01-23T20:53:06.242Z,-0.90
2019-01-23T20:55:35.792Z,-1.00
2019-01-23T20:58:05.536Z,-1.10
2019-01-23T21:00:35.726Z,-1.00
2019-01-23T21:03:05.300Z,-1.10
2019-01-23T21:05:34.830Z,-1.10
2019-01-23T21:08:04.331Z,-1.10
2019-01-23T21:10:33.811Z,-1.10
2019-01-23T21:13:03.322Z,-1.10
2019-01-23T21:15:32.806Z,-1.10
2019-01-23T21:18:02.375Z,-1.10
2019-01-23T21:20:32.185Z,-1.00
2019-01-23T21:23:01.663Z,-1.00
2019-01-23T21:25:31.534Z,-1.00
2019-01-23T21:28:01.054Z,-1.00
2019-01-23T21:30:30.540Z,-1.00
2019-01-23T21:33:00.047Z,-1.10
2019-01-23T21:35:29.558Z,-1.10
2019-01-23T21:37:59.057Z,-1.10
2019-01-23T21:40:31.228Z,-1.10
2019-01-23T21:43:00.945Z,-1.00
2019-01-23T21:45:30.832Z,-1.00
2019-01-23T21:48:00.316Z,-1.00
2019-01-23T21:50:29.864Z,-1.00
2019-01-23T21:52:59.369Z,-1.00
2019-01-23T21:55:28.845Z,-0.90
2019-01-23T21:57:58.402Z,-0.90
2019-01-23T22:00:41.202Z,-1.00
2019-01-23T22:03:32.283Z,-1.00
2019-01-23T22:06:01.773Z,-1.00
2019-01-23T22:08:31.408Z,-1.00
2019-01-23T22:11:01.028Z,-1.00
2019-01-23T22:13:30.613Z,-1.00
2019-01-23T22:16:00.085Z,-1.00
2019-01-23T22:18:29.604Z,-1.00
2019-01-23T22:20:59.091Z,-1.00
2019-01-23T22:23:28.635Z,-1.00
2019-01-23T22:25:58.156Z,-0.90
2019-01-23T22:28:27.632Z,-0.90
2019-01-23T22:30:57.132Z,-0.90
2019-01-23T22:33:26.643Z,-1.00
2019-01-23T22:35:56.111Z,-1.00
2019-01-23T22:38:25.635Z,-1.00
2019-01-23T22:40:55.136Z,-1.00
2019-01-23T22:43:24.627Z,-0.90
2019-01-23T22:45:54.139Z,-0.90
2019-01-23T22:48:23.652Z,-0.80
2019-01-23T22:50:53.153Z,-0.80
2019-01-23T22:53:22.660Z,-0.70
2019-01-23T22:55:52.176Z,-0.80
2019-01-23T22:58:21.666Z,-0.80
2019-01-23T23:01:01.736Z,-0.90
2019-01-23T23:03:31.227Z,-0.90
2019-01-23T23:06:00.709Z,-1.00
2019-01-23T23:08:30.217Z,-1.10
2019-01-23T23:10:59.763Z,-1.10
2019-01-23T23:13:29.233Z,-1.10
2019-01-23T23:15:58.791Z,-1.10
2019-01-23T23:18:28.282Z,-1.00
2019-01-23T23:20:57.779Z,-0.90
2019-01-23T23:23:27.272Z,-0.90
2019-01-23T23:25:56.743Z,-0.90
2019-01-23T23:28:26.241Z,-1.00
2019-01-23T23:30:55.819Z,-1.00
2019-01-23T23:33:25.311Z,-1.00
2019-01-23T23:35:54.808Z,-1.00
2019-01-23T23:38:24.230Z,-1.00
2019-01-23T23:40:53.711Z,-1.00
2019-01-23T23:43:23.220Z,-1.00
2019-01-23T23:45:52.700Z,-1.10
2019-01-23T23:48:22.191Z,-1.10
2019-01-23T23:50:51.731Z,-1.10
2019-01-23T23:53:21.211Z,-1.10
2019-01-23T23:55:50.698Z,-1.10
2019-01-23T23:58:20.226Z,-1.10
